Time;durP1;ratioP1;P1;durP2;ratioP2;P2;SDS_P1;SDS_P2;PMS_P1;PMS_P2;Temp;Humidity;BMP_temperature;BMP_pressure;BME280_temperature;BME280_humidity;BME280_pressure;Samples;Min_cycle;Max_cycle;Signal;HPM_P1;HPM_P2
2021/05/09 00:01:34;;;;;;;2.67;1.65;;;;;;;;;;5010925;28;20034;-88
2021/05/09 00:04:00;;;;;;;4.25;1.98;;;;;;;;;;5013207;28;20030;-87
2021/05/09 00:06:26;;;;;;;5.28;1.90;;;;;;;;;;5018686;28;20030;-87
2021/05/09 00:08:53;;;;;;;3.13;1.67;;;;;;;;;;5023875;28;20014;-89
2021/05/09 00:11:19;;;;;;;6.20;1.80;;;;;;;;;;5012772;28;20070;-87
2021/05/09 00:13:45;;;;;;;4.22;1.77;;;;;;;;;;4994706;28;20102;-87
2021/05/09 00:16:12;;;;;;;4.03;1.95;;;;;;;;;;4995640;28;20030;-87
2021/05/09 00:18:38;;;;;;;3.40;1.88;;;;;;;;;;5016800;28;20085;-87
2021/05/09 00:21:04;;;;;;;3.05;1.50;;;;;;;;;;5022104;28;20033;-88
2021/05/09 00:23:30;;;;;;;2.92;1.35;;;;;;;;;;5020190;28;20033;-87
2021/05/09 00:25:56;;;;;;;3.10;1.83;;;;;;;;;;5016909;28;20038;-87
2021/05/09 00:28:22;;;;;;;5.18;1.90;;;;;;;;;;5031379;28;20041;-87
2021/05/09 00:30:48;;;;;;;5.45;2.28;;;;;;;;;;5028236;28;20029;-87
2021/05/09 00:33:14;;;;;;;4.50;1.95;;;;;;;;;;5020586;28;20026;-87
2021/05/09 00:35:40;;;;;;;3.30;1.90;;;;;;;;;;5001405;28;20026;-87
2021/05/09 00:38:06;;;;;;;4.30;1.90;;;;;;;;;;5021101;28;20031;-87
2021/05/09 00:40:32;;;;;;;3.35;1.92;;;;;;;;;;4997079;28;20022;-86
2021/05/09 00:42:58;;;;;;;3.10;2.20;;;;;;;;;;4997074;28;20427;-87
2021/05/09 00:45:24;;;;;;;3.50;1.80;;;;;;;;;;4997591;28;20034;-87
2021/05/09 00:47:51;;;;;;;4.72;1.63;;;;;;;;;;4998016;28;20025;-87
2021/05/09 00:50:17;;;;;;;4.43;1.80;;;;;;;;;;4998127;28;20149;-87
2021/05/09 00:52:44;;;;;;;2.90;1.95;;;;;;;;;;4998627;28;20045;-86
2021/05/09 00:55:11;;;;;;;4.05;2.25;;;;;;;;;;4977037;28;20038;-87
2021/05/09 00:57:38;;;;;;;4.40;2.00;;;;;;;;;;4997414;28;20022;-87
2021/05/09 01:00:06;;;;;;;4.80;2.00;;;;;;;;;;4998013;28;20109;-87
2021/05/09 01:02:32;;;;;;;5.07;1.90;;;;;;;;;;4998150;28;20030;-87
2021/05/09 01:04:59;;;;;;;2.35;1.77;;;;;;;;;;4996995;28;20113;-87
2021/05/09 01:07:25;;;;;;;2.70;1.63;;;;;;;;;;4983593;28;20043;-88
2021/05/09 01:09:51;;;;;;;6.30;1.50;;;;;;;;;;5001325;28;20036;-88
2021/05/09 01:12:17;;;;;;;2.47;1.42;;;;;;;;;;4997168;28;20109;-89
2021/05/09 01:14:43;;;;;;;2.78;1.73;;;;;;;;;;4997282;28;20044;-87
2021/05/09 01:17:09;;;;;;;2.28;1.33;;;;;;;;;;5020026;28;20045;-89
2021/05/09 01:19:35;;;;;;;4.32;1.83;;;;;;;;;;5019845;28;20081;-87
2021/05/09 01:22:02;;;;;;;4.68;1.90;;;;;;;;;;5008707;28;20539;-87
2021/05/09 01:24:27;;;;;;;3.33;1.80;;;;;;;;;;5011345;28;20057;-88
2021/05/09 01:26:53;;;;;;;2.72;1.60;;;;;;;;;;5008086;28;20038;-87
2021/05/09 01:29:20;;;;;;;4.53;1.90;;;;;;;;;;5006391;28;20022;-87
2021/05/09 01:31:47;;;;;;;2.88;1.70;;;;;;;;;;4988139;28;20093;-87
2021/05/09 01:34:13;;;;;;;4.80;1.83;;;;;;;;;;5002345;28;20102;-87
2021/05/09 01:36:39;;;;;;;3.58;1.70;;;;;;;;;;5011147;28;20034;-87
2021/05/09 01:39:05;;;;;;;2.55;1.55;;;;;;;;;;5007872;28;20026;-87
2021/05/09 01:41:31;;;;;;;2.72;1.77;;;;;;;;;;4993424;28;20026;-88
2021/05/09 01:43:57;;;;;;;2.58;1.70;;;;;;;;;;5006813;28;20049;-87
2021/05/09 01:46:23;;;;;;;4.32;1.75;;;;;;;;;;5007096;28;20038;-87
2021/05/09 01:48:49;;;;;;;3.00;1.77;;;;;;;;;;5010026;28;20037;-87
2021/05/09 01:51:15;;;;;;;2.47;1.73;;;;;;;;;;5009505;28;20054;-88
2021/05/09 01:53:41;;;;;;;2.75;1.80;;;;;;;;;;5009180;28;20027;-88
2021/05/09 01:56:07;;;;;;;2.95;1.52;;;;;;;;;;5007354;28;20038;-86
2021/05/09 01:58:33;;;;;;;3.65;1.58;;;;;;;;;;4990870;28;20054;-87
2021/05/09 02:00:59;;;;;;;3.28;2.00;;;;;;;;;;4990065;28;20026;-86
2021/05/09 02:03:25;;;;;;;3.88;1.75;;;;;;;;;;5001200;28;20022;-87
2021/05/09 02:05:51;;;;;;;3.85;2.10;;;;;;;;;;5000169;28;20046;-87
2021/05/09 02:08:17;;;;;;;2.63;1.90;;;;;;;;;;5000572;28;20031;-87
2021/05/09 02:10:43;;;;;;;2.15;1.67;;;;;;;;;;4991380;28;20118;-87
2021/05/09 02:13:09;;;;;;;1.88;1.55;;;;;;;;;;5007686;28;20057;-87
2021/05/09 02:15:35;;;;;;;3.22;1.98;;;;;;;;;;5024664;28;20029;-87
2021/05/09 02:18:01;;;;;;;2.97;1.70;;;;;;;;;;5021889;28;20018;-87
2021/05/09 02:20:27;;;;;;;3.60;2.20;;;;;;;;;;5002028;28;20030;-86
2021/05/09 02:22:53;;;;;;;3.70;1.95;;;;;;;;;;5010577;28;20498;-87
2021/05/09 02:25:19;;;;;;;4.05;1.88;;;;;;;;;;5002720;28;20030;-86
2021/05/09 02:27:45;;;;;;;3.30;2.00;;;;;;;;;;5010033;28;20113;-87
2021/05/09 02:30:11;;;;;;;2.40;1.55;;;;;;;;;;5009967;28;20038;-86
2021/05/09 02:32:37;;;;;;;5.22;1.80;;;;;;;;;;4992211;28;20026;-87
2021/05/09 02:35:03;;;;;;;4.22;1.80;;;;;;;;;;5008846;28;20050;-86
2021/05/09 02:37:29;;;;;;;3.75;1.65;;;;;;;;;;5020446;28;20411;-87
2021/05/09 02:39:55;;;;;;;2.60;1.60;;;;;;;;;;5021000;28;20053;-87
2021/05/09 02:42:21;;;;;;;2.97;1.80;;;;;;;;;;5006071;28;20038;-86
2021/05/09 02:44:47;;;;;;;3.63;1.77;;;;;;;;;;4989426;28;20089;-87
2021/05/09 02:47:27;;;;;;;3.47;2.20;;;;;;;;;;5017527;28;20104;-87
2021/05/09 02:49:54;;;;;;;3.38;2.20;;;;;;;;;;5010615;28;20058;-86
2021/05/09 02:52:20;;;;;;;4.03;2.33;;;;;;;;;;5004401;28;20069;-87
2021/05/09 02:54:46;;;;;;;2.88;1.83;;;;;;;;;;5025885;28;20026;-87
2021/05/09 02:57:12;;;;;;;4.10;1.90;;;;;;;;;;5019893;28;20041;-87
2021/05/09 02:59:38;;;;;;;4.10;2.00;;;;;;;;;;5003379;28;20034;-87
2021/05/09 03:02:04;;;;;;;3.67;1.77;;;;;;;;;;5001351;28;20034;-87
2021/05/09 03:04:30;;;;;;;3.45;1.60;;;;;;;;;;4992357;28;20035;-87
2021/05/09 03:06:56;;;;;;;3.63;1.92;;;;;;;;;;5010826;28;20038;-87
2021/05/09 03:09:22;;;;;;;3.75;2.08;;;;;;;;;;4995661;28;20033;-87
2021/05/09 03:11:48;;;;;;;4.45;2.20;;;;;;;;;;4995821;28;20034;-86
2021/05/09 03:14:14;;;;;;;3.90;2.03;;;;;;;;;;5016924;28;20427;-88
2021/05/09 03:16:40;;;;;;;3.40;1.80;;;;;;;;;;5006774;28;20033;-87
2021/05/09 03:19:06;;;;;;;3.92;1.65;;;;;;;;;;5011405;28;20018;-87
2021/05/09 03:21:32;;;;;;;3.88;1.80;;;;;;;;;;5023046;28;20033;-87
2021/05/09 03:23:58;;;;;;;3.45;1.77;;;;;;;;;;5021796;28;20040;-86
2021/05/09 03:26:24;;;;;;;2.60;1.67;;;;;;;;;;5024576;28;20550;-86
2021/05/09 03:28:50;;;;;;;2.10;1.40;;;;;;;;;;5026773;28;20022;-87
2021/05/09 03:31:16;;;;;;;3.72;1.67;;;;;;;;;;5008507;28;20038;-87
2021/05/09 03:33:42;;;;;;;2.92;1.50;;;;;;;;;;5014046;28;20026;-87
2021/05/09 03:36:08;;;;;;;1.63;1.45;;;;;;;;;;5011883;28;20034;-87
2021/05/09 03:38:34;;;;;;;4.85;1.80;;;;;;;;;;5015484;28;20445;-87
2021/05/09 03:41:00;;;;;;;4.57;2.60;;;;;;;;;;5022937;28;20029;-87
2021/05/09 03:43:26;;;;;;;5.18;2.28;;;;;;;;;;5020398;28;20027;-86
2021/05/09 03:45:52;;;;;;;3.22;2.15;;;;;;;;;;5012329;28;20038;-86
2021/05/09 03:48:18;;;;;;;5.15;2.30;;;;;;;;;;4995935;28;20034;-87
2021/05/09 03:50:44;;;;;;;2.40;1.88;;;;;;;;;;5011194;28;20050;-86
2021/05/09 03:53:09;;;;;;;3.30;2.13;;;;;;;;;;5010028;28;20033;-87
2021/05/09 03:55:35;;;;;;;4.50;1.88;;;;;;;;;;5007233;28;20027;-87
2021/05/09 03:58:01;;;;;;;3.63;1.95;;;;;;;;;;4992851;28;20027;-87
2021/05/09 04:00:27;;;;;;;3.85;1.85;;;;;;;;;;5010603;28;20530;-87
2021/05/09 04:02:53;;;;;;;4.75;2.28;;;;;;;;;;5008311;28;20046;-86
2021/05/09 04:05:19;;;;;;;5.88;1.90;;;;;;;;;;4998284;28;20033;-87
2021/05/09 04:07:45;;;;;;;3.80;1.65;;;;;;;;;;5007002;28;20021;-85
2021/05/09 04:10:11;;;;;;;3.92;1.98;;;;;;;;;;5027036;28;20029;-88
2021/05/09 04:12:37;;;;;;;4.13;1.92;;;;;;;;;;5005512;28;20110;-87
2021/05/09 04:15:04;;;;;;;2.63;1.90;;;;;;;;;;5011902;28;20034;-88
2021/05/09 04:17:30;;;;;;;3.22;1.92;;;;;;;;;;4990994;28;20033;-88
2021/05/09 04:19:56;;;;;;;6.43;2.10;;;;;;;;;;4995214;28;20029;-87
2021/05/09 04:22:22;;;;;;;4.47;2.10;;;;;;;;;;4988060;28;20086;-88
2021/05/09 04:24:48;;;;;;;3.33;2.10;;;;;;;;;;5011483;28;20080;-88
2021/05/09 04:27:14;;;;;;;3.15;2.03;;;;;;;;;;5001034;28;20129;-87
2021/05/09 04:29:40;;;;;;;3.08;1.90;;;;;;;;;;5016724;28;20025;-87
2021/05/09 04:32:06;;;;;;;3.05;1.70;;;;;;;;;;5019486;28;20113;-87
2021/05/09 04:34:32;;;;;;;3.80;1.90;;;;;;;;;;5009091;28;20065;-88
2021/05/09 04:36:58;;;;;;;4.68;2.05;;;;;;;;;;4991520;28;20034;-87
2021/05/09 04:39:24;;;;;;;3.05;2.05;;;;;;;;;;5008006;28;20069;-87
2021/05/09 04:41:50;;;;;;;3.65;1.90;;;;;;;;;;5001592;28;20030;-87
2021/05/09 04:44:16;;;;;;;4.40;2.00;;;;;;;;;;5022040;28;20032;-87
2021/05/09 04:46:43;;;;;;;2.88;1.75;;;;;;;;;;5005877;28;20326;-87
2021/05/09 04:49:09;;;;;;;3.00;1.70;;;;;;;;;;4988724;28;20045;-87
2021/05/09 04:51:35;;;;;;;3.78;2.10;;;;;;;;;;5003295;28;20050;-86
2021/05/09 04:54:01;;;;;;;3.30;2.20;;;;;;;;;;5011928;28;20060;-87
2021/05/09 04:56:27;;;;;;;2.88;1.70;;;;;;;;;;5009515;28;20019;-87
2021/05/09 04:58:52;;;;;;;2.80;1.90;;;;;;;;;;5007027;28;20021;-87
2021/05/09 05:01:18;;;;;;;3.20;1.63;;;;;;;;;;5003662;28;20026;-86
2021/05/09 05:03:46;;;;;;;3.65;1.80;;;;;;;;;;5009362;28;20035;-87
2021/05/09 05:06:12;;;;;;;2.30;1.40;;;;;;;;;;5008862;28;20034;-87
2021/05/09 05:08:38;;;;;;;3.67;2.15;;;;;;;;;;5012109;28;20013;-86
2021/05/09 05:11:06;;;;;;;3.60;2.28;;;;;;;;;;5007919;28;20434;-89
2021/05/09 05:13:32;;;;;;;3.65;2.30;;;;;;;;;;5006599;28;20029;-87
2021/05/09 05:16:02;;;;;;;3.42;2.05;;;;;;;;;;4995553;28;20031;-87
2021/05/09 05:18:29;;;;;;;3.75;1.98;;;;;;;;;;5002300;28;20023;-87
2021/05/09 05:20:57;;;;;;;2.50;2.10;;;;;;;;;;5001005;28;20022;-87
2021/05/09 05:23:23;;;;;;;5.47;3.30;;;;;;;;;;5003315;28;20109;-87
2021/05/09 05:25:50;;;;;;;5.10;2.85;;;;;;;;;;5000508;28;20066;-87
2021/05/09 05:28:16;;;;;;;3.85;2.55;;;;;;;;;;5022980;28;20034;-87
2021/05/09 05:30:42;;;;;;;4.32;2.08;;;;;;;;;;5011809;28;20018;-90
2021/05/09 05:33:08;;;;;;;2.53;1.95;;;;;;;;;;5022424;28;20089;-87
2021/05/09 05:35:34;;;;;;;4.00;2.00;;;;;;;;;;4993487;28;20030;-89
2021/05/09 05:38:00;;;;;;;3.67;2.15;;;;;;;;;;4991219;28;20033;-90
2021/05/09 05:40:27;;;;;;;4.60;2.10;;;;;;;;;;5030629;28;20022;-90
2021/05/09 05:42:53;;;;;;;3.30;2.10;;;;;;;;;;5011313;28;20391;-90
2021/05/09 05:45:19;;;;;;;3.53;2.33;;;;;;;;;;5014106;28;20014;-90
2021/05/09 05:47:45;;;;;;;3.90;2.47;;;;;;;;;;5001674;28;20022;-90
2021/05/09 05:50:12;;;;;;;3.88;2.00;;;;;;;;;;4989561;28;20046;-90
2021/05/09 05:52:38;;;;;;;1.90;1.20;;;;;;;;;;5003362;28;20023;-90
2021/05/09 05:55:04;;;;;;;2.85;1.63;;;;;;;;;;5012397;28;20030;-90
2021/05/09 05:57:30;;;;;;;2.42;1.55;;;;;;;;;;4993556;28;20057;-90
2021/05/09 05:59:56;;;;;;;4.82;1.40;;;;;;;;;;4999948;28;20062;-89
2021/05/09 06:02:22;;;;;;;1.98;1.25;;;;;;;;;;4999820;28;20453;-89
2021/05/09 06:04:49;;;;;;;2.65;1.40;;;;;;;;;;4992225;28;20021;-89
2021/05/09 06:07:15;;;;;;;1.65;1.30;;;;;;;;;;5007667;28;20075;-88
2021/05/09 06:09:41;;;;;;;2.22;1.45;;;;;;;;;;4999688;28;20491;-89
2021/05/09 06:12:10;;;;;;;1.98;1.20;;;;;;;;;;5015498;28;20049;-89
2021/05/09 06:14:36;;;;;;;2.10;1.10;;;;;;;;;;5010803;28;20030;-88
2021/05/09 06:17:02;;;;;;;1.75;1.13;;;;;;;;;;4993869;28;20034;-89
2021/05/09 06:19:28;;;;;;;2.25;1.27;;;;;;;;;;4994040;28;20057;-88
2021/05/09 06:21:54;;;;;;;4.75;1.50;;;;;;;;;;4994335;28;20038;-88
2021/05/09 06:24:20;;;;;;;2.65;1.50;;;;;;;;;;5026582;28;20077;-89
2021/05/09 06:26:48;;;;;;;2.42;1.20;;;;;;;;;;5031135;28;20033;-89
2021/05/09 06:29:14;;;;;;;;;;;;;;;;;;5009391;28;20046;-89
2021/05/09 06:31:40;;;;;;;1.98;1.02;;;;;;;;;;5023551;28;19909;-89
2021/05/09 06:34:07;;;;;;;1.27;1.10;;;;;;;;;;4994140;28;20109;-89
2021/05/09 06:36:33;;;;;;;3.53;1.30;;;;;;;;;;5008164;28;20065;-90
2021/05/09 06:39:00;;;;;;;1.98;1.23;;;;;;;;;;5006250;28;20039;-91
2021/05/09 06:41:26;;;;;;;2.00;1.10;;;;;;;;;;5018459;28;20022;-91
2021/05/09 06:43:56;;;;;;;3.42;1.20;;;;;;;;;;5016682;28;20524;-92
2021/05/09 06:46:22;;;;;;;1.52;1.10;;;;;;;;;;4999001;28;20035;-93
2021/05/09 06:48:48;;;;;;;2.35;1.20;;;;;;;;;;4991801;28;20029;-93
2021/05/09 06:51:14;;;;;;;4.18;1.20;;;;;;;;;;4995971;28;20058;-93
2021/05/09 06:53:40;;;;;;;1.65;1.20;;;;;;;;;;5010127;28;20029;-95
2021/05/09 06:56:06;;;;;;;1.40;1.00;;;;;;;;;;5004708;28;20101;-95
2021/05/09 06:58:32;;;;;;;1.95;0.85;;;;;;;;;;5002161;28;20023;-94
2021/05/09 07:00:58;;;;;;;3.63;1.00;;;;;;;;;;4981305;28;20026;-94
2021/05/09 07:03:28;;;;;;;1.73;1.00;;;;;;;;;;4983641;28;20021;-96
2021/05/09 07:05:55;;;;;;;3.10;1.05;;;;;;;;;;4994631;28;20041;-92
2021/05/09 07:08:21;;;;;;;2.37;1.10;;;;;;;;;;4994065;28;20039;-92
2021/05/09 07:10:47;;;;;;;2.25;1.13;;;;;;;;;;4991297;28;20728;-89
2021/05/09 07:13:13;;;;;;;1.45;1.00;;;;;;;;;;5009572;28;20030;-89
2021/05/09 07:15:41;;;;;;;1.50;0.95;;;;;;;;;;4993879;28;20045;-89
2021/05/09 07:20:40;;;;;;;1.58;0.90;;;;;;;;;;5000868;28;20491;-89
2021/05/09 07:23:07;;;;;;;2.83;1.23;;;;;;;;;;4992863;28;20030;-90
2021/05/09 07:25:33;;;;;;;1.10;0.98;;;;;;;;;;4992419;28;20041;-90
2021/05/09 07:28:06;;;;;;;2.22;0.80;;;;;;;;;;5017734;28;20026;-92
2021/05/09 07:30:53;;;;;;;2.13;0.90;;;;;;;;;;5003170;28;20029;-96
2021/05/09 07:33:19;;;;;;;1.20;0.80;;;;;;;;;;5010969;23;20050;-68
2021/05/09 07:35:45;;;;;;;3.08;1.10;;;;;;;;;;5008968;28;20037;-68
2021/05/09 07:38:12;;;;;;;2.78;0.88;;;;;;;;;;5009254;28;20030;-68
2021/05/09 07:40:38;;;;;;;2.30;0.90;;;;;;;;;;5009252;28;20579;-68
2021/05/09 07:43:04;;;;;;;1.90;0.90;;;;;;;;;;5008405;28;20037;-68
2021/05/09 07:45:31;;;;;;;1.58;0.90;;;;;;;;;;5011374;28;20045;-68
2021/05/09 07:47:57;;;;;;;2.33;1.00;;;;;;;;;;5007734;28;20076;-67
2021/05/09 07:50:25;;;;;;;1.65;0.90;;;;;;;;;;5009165;28;20018;-68
2021/05/09 07:52:52;;;;;;;1.42;0.77;;;;;;;;;;5000431;28;20026;-67
2021/05/09 07:55:18;;;;;;;0.80;0.73;;;;;;;;;;5012704;28;20117;-66
2021/05/09 07:57:44;;;;;;;0.80;0.70;;;;;;;;;;5020582;28;20192;-66
2021/05/09 08:00:15;;;;;;;2.05;1.02;;;;;;;;;;5003611;28;20416;-67
2021/05/09 08:02:42;;;;;;;1.60;0.90;;;;;;;;;;5012399;28;20036;-67
2021/05/09 08:05:08;;;;;;;2.20;0.80;;;;;;;;;;5012003;28;20030;-67
2021/05/09 08:07:34;;;;;;;1.08;0.75;;;;;;;;;;5012709;28;20033;-67
2021/05/09 08:10:00;;;;;;;1.27;0.80;;;;;;;;;;5013575;28;20565;-69
2021/05/09 08:12:26;;;;;;;1.85;0.90;;;;;;;;;;5011671;28;20145;-69
2021/05/09 08:14:52;;;;;;;2.58;1.10;;;;;;;;;;5009669;28;20033;-69
2021/05/09 08:17:18;;;;;;;1.92;0.88;;;;;;;;;;5012613;28;20022;-70
2021/05/09 08:19:44;;;;;;;0.95;0.70;;;;;;;;;;5012091;28;20523;-66
2021/05/09 08:22:10;;;;;;;1.77;0.88;;;;;;;;;;5008122;28;20045;-66
2021/05/09 08:24:36;;;;;;;0.98;0.65;;;;;;;;;;5011054;28;20477;-66
2021/05/09 08:27:02;;;;;;;1.30;0.82;;;;;;;;;;5012071;28;20041;-68
2021/05/09 08:29:28;;;;;;;3.75;0.98;;;;;;;;;;5011955;28;20456;-66
2021/05/09 08:31:54;;;;;;;1.38;0.90;;;;;;;;;;5010464;28;20042;-66
2021/05/09 08:34:20;;;;;;;2.20;1.02;;;;;;;;;;5011788;28;20101;-66
2021/05/09 08:36:46;;;;;;;1.95;0.90;;;;;;;;;;5013936;28;20026;-65
2021/05/09 08:39:12;;;;;;;2.92;1.20;;;;;;;;;;5011488;28;20069;-70
2021/05/09 08:41:40;;;;;;;1.50;1.00;;;;;;;;;;5007959;28;20022;-65
2021/05/09 08:44:10;;;;;;;1.17;1.00;;;;;;;;;;5002166;28;20105;-67
2021/05/09 08:46:36;;;;;;;4.40;0.98;;;;;;;;;;5011292;28;20037;-68
2021/05/09 08:49:03;;;;;;;2.28;1.15;;;;;;;;;;5008610;28;20478;-68
2021/05/09 08:51:29;;;;;;;2.60;1.20;;;;;;;;;;5013589;28;20033;-66
2021/05/09 08:53:55;;;;;;;3.40;0.98;;;;;;;;;;5011024;28;20037;-67
2021/05/09 08:56:22;;;;;;;2.73;1.03;;;;;;;;;;5010663;28;20025;-68
2021/05/09 08:58:48;;;;;;;1.90;1.23;;;;;;;;;;5011076;28;20049;-67
2021/05/09 09:01:14;;;;;;;4.53;1.33;;;;;;;;;;5002954;28;20504;-67
2021/05/09 09:03:40;;;;;;;2.35;1.02;;;;;;;;;;5011357;28;20026;-67
2021/05/09 09:06:11;;;;;;;2.88;1.00;;;;;;;;;;5008018;28;20037;-67
2021/05/09 09:08:50;;;;;;;4.03;1.35;;;;;;;;;;5008754;28;20077;-68
2021/05/09 09:11:25;;;;;;;5.55;1.63;;;;;;;;;;5008654;28;20469;-67
2021/05/09 09:14:06;;;;;;;5.10;1.42;;;;;;;;;;5011063;28;20060;-67
2021/05/09 09:16:32;;;;;;;4.30;1.80;;;;;;;;;;4997313;28;20025;-70
2021/05/09 09:19:06;;;;;;;2.63;1.42;;;;;;;;;;5012557;28;20496;-70
2021/05/09 09:21:32;;;;;;;5.53;1.73;;;;;;;;;;5011360;28;20022;-70
2021/05/09 09:24:06;;;;;;;2.53;1.40;;;;;;;;;;5010653;28;20037;-69
2021/05/09 09:26:33;;;;;;;4.95;1.90;;;;;;;;;;5011053;28;20038;-69
2021/05/09 09:29:00;;;;;;;3.63;1.60;;;;;;;;;;5010053;28;20033;-69
2021/05/09 09:31:36;;;;;;;4.25;1.50;;;;;;;;;;5011134;28;20030;-69
2021/05/09 09:34:02;;;;;;;3.33;1.50;;;;;;;;;;5011079;28;20045;-69
2021/05/09 09:36:28;;;;;;;4.50;1.45;;;;;;;;;;5012703;28;20389;-69
2021/05/09 09:38:54;;;;;;;4.70;1.45;;;;;;;;;;5010813;28;20033;-69
2021/05/09 09:41:21;;;;;;;3.20;1.33;;;;;;;;;;5011147;28;20029;-69
2021/05/09 09:44:01;;;;;;;2.50;1.38;;;;;;;;;;5009096;28;20467;-69
2021/05/09 09:46:28;;;;;;;2.75;1.35;;;;;;;;;;4994577;28;20126;-70
2021/05/09 09:48:54;;;;;;;3.05;1.30;;;;;;;;;;5012188;28;20029;-69
2021/05/09 09:51:20;;;;;;;4.88;1.58;;;;;;;;;;5009560;28;20104;-68
2021/05/09 09:53:46;;;;;;;2.92;1.48;;;;;;;;;;5010212;28;20030;-67
2021/05/09 09:56:17;;;;;;;4.22;1.40;;;;;;;;;;5010343;28;20482;-69
2021/05/09 09:58:49;;;;;;;3.70;1.52;;;;;;;;;;5010912;28;20037;-70
2021/05/09 10:01:19;;;;;;;2.92;1.48;;;;;;;;;;5010550;28;20394;-69
2021/05/09 10:03:47;;;;;;;3.03;1.50;;;;;;;;;;5012583;28;20141;-69
2021/05/09 10:06:13;;;;;;;3.20;1.30;;;;;;;;;;5009986;28;20022;-69
2021/05/09 10:08:39;;;;;;;3.13;1.45;;;;;;;;;;5009042;28;20084;-69
2021/05/09 10:11:06;;;;;;;5.20;1.40;;;;;;;;;;5010364;28;20029;-69
2021/05/09 10:13:33;;;;;;;3.85;1.48;;;;;;;;;;5009917;28;20440;-69
2021/05/09 10:15:59;;;;;;;4.07;1.53;;;;;;;;;;5010871;28;20032;-69
2021/05/09 10:18:26;;;;;;;3.03;1.48;;;;;;;;;;5011731;28;20048;-69
2021/05/09 10:20:52;;;;;;;3.10;1.40;;;;;;;;;;5010252;28;20030;-69
2021/05/09 10:23:18;;;;;;;5.68;1.50;;;;;;;;;;5008900;28;20500;-69
2021/05/09 10:25:49;;;;;;;5.50;1.83;;;;;;;;;;5008127;28;20113;-69
2021/05/09 10:28:16;;;;;;;4.63;1.30;;;;;;;;;;5009847;28;20030;-69
2021/05/09 10:30:49;;;;;;;2.45;1.30;;;;;;;;;;5011797;28;20116;-69
2021/05/09 10:33:33;;;;;;;6.53;1.52;;;;;;;;;;5008685;28;20085;-69
2021/05/09 10:35:59;;;;;;;3.40;1.38;;;;;;;;;;5009488;28;20478;-69
2021/05/09 10:38:25;;;;;;;2.20;1.33;;;;;;;;;;5010081;28;20029;-69
2021/05/09 10:41:09;;;;;;;4.32;1.45;;;;;;;;;;5010171;28;20057;-69
2021/05/09 10:43:35;;;;;;;6.00;1.65;;;;;;;;;;4996398;28;20030;-69
2021/05/09 10:46:01;;;;;;;7.85;1.63;;;;;;;;;;5010716;28;20048;-69
2021/05/09 10:48:34;;;;;;;3.92;1.20;;;;;;;;;;5009595;28;20036;-69
2021/05/09 10:51:03;;;;;;;3.85;1.50;;;;;;;;;;5009519;28;20093;-69
2021/05/09 10:56:04;;;;;;;3.33;1.20;;;;;;;;;;5009692;28;20046;-69
2021/05/09 10:58:57;;;;;;;4.80;1.65;;;;;;;;;;5009783;28;20481;-69
2021/05/09 11:01:24;;;;;;;4.05;1.30;;;;;;;;;;4991852;28;20045;-69
2021/05/09 11:03:52;;;;;;;2.90;1.50;;;;;;;;;;5010961;28;20053;-69
2021/05/09 11:06:19;;;;;;;4.90;1.42;;;;;;;;;;5008654;28;20049;-69
2021/05/09 11:08:47;;;;;;;3.53;1.52;;;;;;;;;;5008502;28;20026;-69
2021/05/09 11:11:19;;;;;;;2.92;1.70;;;;;;;;;;5009601;28;20382;-69
2021/05/09 11:14:01;;;;;;;6.25;1.65;;;;;;;;;;5009474;28;20021;-69
2021/05/09 11:16:27;;;;;;;3.10;1.52;;;;;;;;;;4995333;28;20389;-70
2021/05/09 11:18:57;;;;;;;4.72;1.83;;;;;;;;;;5010541;28;20045;-68
2021/05/09 11:21:23;;;;;;;3.00;1.77;;;;;;;;;;5010470;28;20033;-68
2021/05/09 11:23:49;;;;;;;4.25;1.67;;;;;;;;;;5010067;28;20018;-69
2021/05/09 11:26:28;;;;;;;4.10;1.90;;;;;;;;;;5012126;28;20061;-67
2021/05/09 11:29:13;;;;;;;5.82;2.00;;;;;;;;;;5013047;28;20030;-67
2021/05/09 11:31:40;;;;;;;3.97;1.70;;;;;;;;;;5013175;28;20101;-66
2021/05/09 11:34:06;;;;;;;5.43;1.92;;;;;;;;;;5012695;28;20034;-67
2021/05/09 11:36:33;;;;;;;3.60;1.90;;;;;;;;;;5015115;28;20045;-67
2021/05/09 11:39:09;;;;;;;3.03;1.60;;;;;;;;;;5013285;28;20362;-67
2021/05/09 11:41:54;;;;;;;5.35;1.70;;;;;;;;;;5011859;28;20018;-67
2021/05/09 11:44:21;;;;;;;3.63;1.75;;;;;;;;;;5010843;28;20026;-67
2021/05/09 11:46:48;;;;;;;3.28;1.83;;;;;;;;;;5011715;28;20061;-67
2021/05/09 11:49:18;;;;;;;6.78;2.08;;;;;;;;;;5012472;28;20063;-67
2021/05/09 11:52:07;;;;;;;3.30;1.52;;;;;;;;;;5014967;28;20117;-68
2021/05/09 11:54:35;;;;;;;3.88;1.80;;;;;;;;;;5012748;28;20042;-68
2021/05/09 11:57:02;;;;;;;3.70;1.75;;;;;;;;;;5012065;28;20144;-68
2021/05/09 11:59:31;;;;;;;3.10;1.60;;;;;;;;;;5012494;28;20120;-68
2021/05/09 12:01:58;;;;;;;4.13;1.90;;;;;;;;;;5012670;28;20030;-68
2021/05/09 12:04:29;;;;;;;3.17;1.73;;;;;;;;;;5011002;28;20026;-68
2021/05/09 12:06:56;;;;;;;3.55;1.45;;;;;;;;;;5013656;28;20064;-68
2021/05/09 12:09:22;;;;;;;4.47;1.70;;;;;;;;;;5013450;28;20033;-68
2021/05/09 12:11:48;;;;;;;5.32;1.80;;;;;;;;;;5012634;28;20068;-68
2021/05/09 12:14:14;;;;;;;4.50;1.48;;;;;;;;;;5012455;28;20022;-68
2021/05/09 12:16:41;;;;;;;4.40;1.77;;;;;;;;;;5011960;28;20030;-68
2021/05/09 12:19:07;;;;;;;2.83;1.40;;;;;;;;;;5013007;28;20096;-68
2021/05/09 12:21:33;;;;;;;3.17;1.60;;;;;;;;;;5012465;28;20425;-68
2021/05/09 12:24:06;;;;;;;2.63;1.55;;;;;;;;;;5010685;28;20022;-68
2021/05/09 12:26:32;;;;;;;4.93;1.75;;;;;;;;;;5010718;28;20034;-68
2021/05/09 12:29:14;;;;;;;3.42;1.70;;;;;;;;;;5012180;28;20030;-68
2021/05/09 12:31:40;;;;;;;4.18;1.70;;;;;;;;;;5011444;28;20579;-68
2021/05/09 12:34:06;;;;;;;5.40;1.92;;;;;;;;;;5011770;28;20151;-68
2021/05/09 12:36:32;;;;;;;4.00;1.85;;;;;;;;;;5013339;28;20026;-68
2021/05/09 12:39:00;;;;;;;3.35;1.83;;;;;;;;;;5012126;28;20026;-68
2021/05/09 12:41:26;;;;;;;5.65;1.95;;;;;;;;;;5012171;28;20527;-69
2021/05/09 12:43:53;;;;;;;4.53;1.92;;;;;;;;;;5012029;28;20477;-69
2021/05/09 12:46:47;;;;;;;3.42;1.90;;;;;;;;;;4994016;28;20129;-69
2021/05/09 12:49:13;;;;;;;3.92;1.88;;;;;;;;;;5009993;28;20409;-69
2021/05/09 12:52:01;;;;;;;5.68;2.15;;;;;;;;;;5014009;28;20032;-69
2021/05/09 12:54:48;;;;;;;3.63;2.08;;;;;;;;;;5012914;28;20072;-69
2021/05/09 12:57:24;;;;;;;4.45;2.25;;;;;;;;;;5011884;28;20025;-69
2021/05/09 12:59:51;;;;;;;5.13;2.08;;;;;;;;;;5010312;28;20057;-69
2021/05/09 13:02:18;;;;;;;4.27;2.50;;;;;;;;;;5010040;28;20026;-69
2021/05/09 13:04:47;;;;;;;4.85;2.10;;;;;;;;;;5010157;28;20630;-69
2021/05/09 13:07:15;;;;;;;6.93;2.38;;;;;;;;;;5011582;28;20041;-69
2021/05/09 13:09:42;;;;;;;4.50;2.00;;;;;;;;;;5012864;28;20033;-69
2021/05/09 13:12:09;;;;;;;4.97;1.95;;;;;;;;;;5011033;28;20577;-68
2021/05/09 13:14:45;;;;;;;5.15;2.30;;;;;;;;;;5011261;28;20044;-69
2021/05/09 13:17:12;;;;;;;5.28;2.20;;;;;;;;;;5011338;28;20034;-69
2021/05/09 13:19:39;;;;;;;5.55;2.60;;;;;;;;;;5011332;28;20028;-69
2021/05/09 13:22:05;;;;;;;4.63;1.90;;;;;;;;;;5012308;28;20022;-69
2021/05/09 13:24:31;;;;;;;4.80;2.20;;;;;;;;;;5010337;28;20022;-69
2021/05/09 13:26:57;;;;;;;4.25;1.95;;;;;;;;;;5010976;28;20038;-69
2021/05/09 13:29:23;;;;;;;6.85;2.08;;;;;;;;;;5010946;28;20030;-69
2021/05/09 13:31:49;;;;;;;6.13;1.92;;;;;;;;;;5011015;28;20030;-69
2021/05/09 13:34:15;;;;;;;5.15;2.10;;;;;;;;;;5010354;28;20401;-69
2021/05/09 13:36:41;;;;;;;4.00;1.90;;;;;;;;;;5013024;28;20030;-69
2021/05/09 13:39:08;;;;;;;5.20;2.30;;;;;;;;;;5009710;28;20026;-69
2021/05/09 13:41:35;;;;;;;4.73;1.97;;;;;;;;;;5011160;28;20393;-68
2021/05/09 13:44:01;;;;;;;6.85;2.30;;;;;;;;;;5009164;28;20026;-68
2021/05/09 13:46:27;;;;;;;4.53;2.08;;;;;;;;;;5009871;28;20038;-68
2021/05/09 13:48:53;;;;;;;5.15;2.20;;;;;;;;;;5011730;28;20160;-68
2021/05/09 13:51:19;;;;;;;4.55;2.30;;;;;;;;;;5011192;28;20168;-68
2021/05/09 13:53:45;;;;;;;5.18;2.42;;;;;;;;;;5010772;28;20525;-68
2021/05/09 13:56:11;;;;;;;5.57;2.15;;;;;;;;;;5010564;28;20092;-68
2021/05/09 13:58:37;;;;;;;4.72;2.10;;;;;;;;;;5010167;28;20381;-68
2021/05/09 14:01:03;;;;;;;5.25;2.08;;;;;;;;;;5011142;28;20080;-68
2021/05/09 14:03:30;;;;;;;9.07;2.60;;;;;;;;;;5010286;28;20544;-69
2021/05/09 14:05:56;;;;;;;6.90;2.47;;;;;;;;;;5009979;28;20034;-68
2021/05/09 14:08:22;;;;;;;5.57;2.30;;;;;;;;;;5010188;28;20037;-68
2021/05/09 14:10:48;;;;;;;6.68;2.47;;;;;;;;;;5009726;28;20513;-68
2021/05/09 14:13:15;;;;;;;5.43;2.30;;;;;;;;;;5009802;28;20056;-68
2021/05/09 14:15:41;;;;;;;5.82;2.50;;;;;;;;;;5011806;28;20017;-68
2021/05/09 14:18:08;;;;;;;4.65;2.33;;;;;;;;;;5009045;28;20054;-68
2021/05/09 14:20:34;;;;;;;4.47;2.28;;;;;;;;;;5008710;28;20037;-69
2021/05/09 14:23:00;;;;;;;5.50;2.20;;;;;;;;;;5008904;28;20030;-68
2021/05/09 14:25:26;;;;;;;5.40;2.30;;;;;;;;;;5009959;28;20060;-69
2021/05/09 14:27:52;;;;;;;7.40;2.50;;;;;;;;;;5011195;28;20037;-68
2021/05/09 14:30:19;;;;;;;5.53;2.60;;;;;;;;;;5009110;28;20026;-68
2021/05/09 14:32:45;;;;;;;6.53;2.20;;;;;;;;;;5009954;28;20049;-68
2021/05/09 14:35:11;;;;;;;5.32;2.35;;;;;;;;;;5009988;28;20505;-68
2021/05/09 14:37:37;;;;;;;6.15;2.30;;;;;;;;;;5009774;28;20107;-68
2021/05/09 14:40:04;;;;;;;6.63;2.50;;;;;;;;;;5011107;28;20054;-68
2021/05/09 14:42:30;;;;;;;5.30;2.33;;;;;;;;;;5008476;28;20034;-68
2021/05/09 14:44:56;;;;;;;3.47;2.17;;;;;;;;;;5007791;28;20029;-69
2021/05/09 14:47:22;;;;;;;5.15;2.40;;;;;;;;;;5010156;28;20038;-68
2021/05/09 14:49:49;;;;;;;6.50;2.38;;;;;;;;;;5007306;28;20110;-65